sensor_id;sensor_type;location;lat;lon;timestamp;P1;durP1;ratioP1;P2;durP2;ratioP2
43086;SDS011;28708;52.224;6.924;2022-09-09T00:02:01;5.30;;;2.43;;
43086;SDS011;28708;52.224;6.924;2022-09-09T00:04:38;4.60;;;2.13;;
43086;SDS011;28708;52.224;6.924;2022-09-09T00:15:05;6.03;;;1.87;;
43086;SDS011;28708;52.224;6.924;2022-09-09T00:18:09;6.47;;;2.20;;
43086;SDS011;28708;52.224;6.924;2022-09-09T00:23:13;6.20;;;1.97;;
43086;SDS011;28708;52.224;6.924;2022-09-09T00:26:02;4.73;;;2.20;;
43086;SDS011;28708;52.224;6.924;2022-09-09T00:28:29;4.57;;;1.70;;
43086;SDS011;28708;52.224;6.924;2022-09-09T00:31:13;5.07;;;1.80;;
43086;SDS011;28708;52.224;6.924;2022-09-09T00:33:44;5.80;;;1.80;;
43086;SDS011;28708;52.224;6.924;2022-09-09T00:36:14;3.60;;;1.50;;
43086;SDS011;28708;52.224;6.924;2022-09-09T00:38:55;2.17;;;1.50;;
43086;SDS011;28708;52.224;6.924;2022-09-09T00:41:26;3.37;;;1.37;;
43086;SDS011;28708;52.224;6.924;2022-09-09T00:46:56;4.20;;;1.37;;
43086;SDS011;28708;52.224;6.924;2022-09-09T00:58:06;6.87;;;1.67;;
43086;SDS011;28708;52.224;6.924;2022-09-09T01:28:08;3.63;;;2.30;;
43086;SDS011;28708;52.224;6.924;2022-09-09T01:30:38;4.50;;;2.37;;
43086;SDS011;28708;52.224;6.924;2022-09-09T01:33:10;4.47;;;2.10;;
43086;SDS011;28708;52.224;6.924;2022-09-09T01:35:42;5.23;;;2.40;;
43086;SDS011;28708;52.224;6.924;2022-09-09T01:38:14;4.83;;;2.13;;
43086;SDS011;28708;52.224;6.924;2022-09-09T01:40:41;5.37;;;2.50;;
43086;SDS011;28708;52.224;6.924;2022-09-09T01:43:07;7.50;;;3.20;;
43086;SDS011;28708;52.224;6.924;2022-09-09T01:45:34;4.83;;;3.37;;
43086;SDS011;28708;52.224;6.924;2022-09-09T01:48:01;8.27;;;3.90;;
43086;SDS011;28708;52.224;6.924;2022-09-09T01:50:42;8.57;;;3.20;;
43086;SDS011;28708;52.224;6.924;2022-09-09T01:53:08;6.13;;;3.60;;
43086;SDS011;28708;52.224;6.924;2022-09-09T01:55:37;5.67;;;3.73;;
43086;SDS011;28708;52.224;6.924;2022-09-09T02:00:43;7.40;;;4.40;;
43086;SDS011;28708;52.224;6.924;2022-09-09T02:03:19;5.63;;;3.77;;
43086;SDS011;28708;52.224;6.924;2022-09-09T02:08:44;5.27;;;3.03;;
43086;SDS011;28708;52.224;6.924;2022-09-09T02:11:16;4.53;;;3.27;;
43086;SDS011;28708;52.224;6.924;2022-09-09T02:13:58;6.27;;;3.60;;
43086;SDS011;28708;52.224;6.924;2022-09-09T02:16:32;5.80;;;3.63;;
43086;SDS011;28708;52.224;6.924;2022-09-09T02:19:16;10.80;;;3.47;;
43086;SDS011;28708;52.224;6.924;2022-09-09T02:22:19;5.00;;;3.40;;
43086;SDS011;28708;52.224;6.924;2022-09-09T02:24:48;6.68;;;3.13;;
43086;SDS011;28708;52.224;6.924;2022-09-09T02:27:23;5.70;;;3.43;;
43086;SDS011;28708;52.224;6.924;2022-09-09T02:29:50;5.40;;;3.57;;
43086;SDS011;28708;52.224;6.924;2022-09-09T02:32:26;4.43;;;3.20;;
43086;SDS011;28708;52.224;6.924;2022-09-09T02:34:57;4.55;;;3.40;;
43086;SDS011;28708;52.224;6.924;2022-09-09T02:37:33;5.27;;;3.17;;
43086;SDS011;28708;52.224;6.924;2022-09-09T02:40:08;5.53;;;3.50;;
43086;SDS011;28708;52.224;6.924;2022-09-09T02:42:43;5.97;;;3.57;;
43086;SDS011;28708;52.224;6.924;2022-09-09T02:45:16;6.20;;;3.47;;
43086;SDS011;28708;52.224;6.924;2022-09-09T02:47:51;5.83;;;3.60;;
43086;SDS011;28708;52.224;6.924;2022-09-09T02:54:25;5.10;;;3.67;;
43086;SDS011;28708;52.224;6.924;2022-09-09T02:56:42;6.47;;;3.63;;
43086;SDS011;28708;52.224;6.924;2022-09-09T02:59:12;5.60;;;4.20;;
43086;SDS011;28708;52.224;6.924;2022-09-09T03:01:39;5.67;;;4.13;;
43086;SDS011;28708;52.224;6.924;2022-09-09T03:04:05;6.87;;;4.07;;
43086;SDS011;28708;52.224;6.924;2022-09-09T03:06:31;6.03;;;4.47;;
43086;SDS011;28708;52.224;6.924;2022-09-09T03:09:06;6.83;;;4.17;;
43086;SDS011;28708;52.224;6.924;2022-09-09T03:11:33;5.87;;;3.77;;
43086;SDS011;28708;52.224;6.924;2022-09-09T03:13:58;6.20;;;4.13;;
43086;SDS011;28708;52.224;6.924;2022-09-09T03:16:27;6.57;;;4.63;;
43086;SDS011;28708;52.224;6.924;2022-09-09T03:18:53;7.50;;;4.40;;
43086;SDS011;28708;52.224;6.924;2022-09-09T03:21:19;7.13;;;5.20;;
43086;SDS011;28708;52.224;6.924;2022-09-09T03:23:45;6.63;;;4.50;;
43086;SDS011;28708;52.224;6.924;2022-09-09T03:26:11;6.37;;;4.70;;
43086;SDS011;28708;52.224;6.924;2022-09-09T03:28:43;6.20;;;5.30;;
43086;SDS011;28708;52.224;6.924;2022-09-09T03:31:10;8.23;;;4.87;;
43086;SDS011;28708;52.224;6.924;2022-09-09T03:36:09;8.33;;;5.13;;
43086;SDS011;28708;52.224;6.924;2022-09-09T03:38:36;5.63;;;4.57;;
43086;SDS011;28708;52.224;6.924;2022-09-09T03:41:02;5.70;;;4.50;;
43086;SDS011;28708;52.224;6.924;2022-09-09T03:43:29;5.10;;;4.33;;
43086;SDS011;28708;52.224;6.924;2022-09-09T03:45:55;6.37;;;5.00;;
43086;SDS011;28708;52.224;6.924;2022-09-09T03:48:26;8.20;;;5.90;;
43086;SDS011;28708;52.224;6.924;2022-09-09T03:50:54;6.53;;;5.03;;
43086;SDS011;28708;52.224;6.924;2022-09-09T03:53:26;10.07;;;6.27;;
43086;SDS011;28708;52.224;6.924;2022-09-09T03:55:53;8.40;;;6.30;;
43086;SDS011;28708;52.224;6.924;2022-09-09T03:58:22;8.48;;;6.32;;
43086;SDS011;28708;52.224;6.924;2022-09-09T04:00:55;8.27;;;5.77;;
43086;SDS011;28708;52.224;6.924;2022-09-09T04:03:24;8.15;;;5.50;;
43086;SDS011;28708;52.224;6.924;2022-09-09T04:05:51;8.87;;;7.27;;
43086;SDS011;28708;52.224;6.924;2022-09-09T04:08:18;8.00;;;5.57;;
43086;SDS011;28708;52.224;6.924;2022-09-09T04:10:46;11.03;;;7.03;;
43086;SDS011;28708;52.224;6.924;2022-09-09T04:13:13;10.40;;;7.33;;
43086;SDS011;28708;52.224;6.924;2022-09-09T04:15:40;10.03;;;6.87;;
43086;SDS011;28708;52.224;6.924;2022-09-09T04:18:06;10.03;;;7.37;;
43086;SDS011;28708;52.224;6.924;2022-09-09T04:20:32;13.23;;;8.33;;
43086;SDS011;28708;52.224;6.924;2022-09-09T04:22:58;10.30;;;8.10;;
43086;SDS011;28708;52.224;6.924;2022-09-09T04:25:24;13.57;;;8.57;;
43086;SDS011;28708;52.224;6.924;2022-09-09T04:27:54;10.83;;;8.43;;
43086;SDS011;28708;52.224;6.924;2022-09-09T04:32:46;14.37;;;9.70;;
43086;SDS011;28708;52.224;6.924;2022-09-09T04:35:13;12.90;;;8.57;;
43086;SDS011;28708;52.224;6.924;2022-09-09T04:37:39;11.97;;;8.80;;
43086;SDS011;28708;52.224;6.924;2022-09-09T04:40:06;16.03;;;8.70;;
43086;SDS011;28708;52.224;6.924;2022-09-09T04:42:36;13.63;;;9.50;;
43086;SDS011;28708;52.224;6.924;2022-09-09T04:45:02;13.47;;;8.87;;
43086;SDS011;28708;52.224;6.924;2022-09-09T04:47:29;13.40;;;9.60;;
43086;SDS011;28708;52.224;6.924;2022-09-09T04:49:55;15.60;;;9.83;;
43086;SDS011;28708;52.224;6.924;2022-09-09T04:52:22;11.90;;;8.70;;
43086;SDS011;28708;52.224;6.924;2022-09-09T04:54:48;14.83;;;10.03;;
43086;SDS011;28708;52.224;6.924;2022-09-09T04:57:14;12.20;;;8.57;;
43086;SDS011;28708;52.224;6.924;2022-09-09T04:59:40;16.30;;;8.93;;
43086;SDS011;28708;52.224;6.924;2022-09-09T05:02:06;13.40;;;8.37;;
43086;SDS011;28708;52.224;6.924;2022-09-09T05:04:32;13.30;;;8.07;;
43086;SDS011;28708;52.224;6.924;2022-09-09T05:06:58;12.37;;;8.70;;
43086;SDS011;28708;52.224;6.924;2022-09-09T05:09:24;15.20;;;8.47;;
43086;SDS011;28708;52.224;6.924;2022-09-09T05:11:51;12.33;;;7.70;;
43086;SDS011;28708;52.224;6.924;2022-09-09T05:14:24;14.90;;;7.50;;
43086;SDS011;28708;52.224;6.924;2022-09-09T05:16:49;12.67;;;7.83;;
43086;SDS011;28708;52.224;6.924;2022-09-09T05:19:15;11.63;;;7.70;;
43086;SDS011;28708;52.224;6.924;2022-09-09T05:21:46;13.00;;;6.97;;
43086;SDS011;28708;52.224;6.924;2022-09-09T05:24:15;16.97;;;7.87;;
43086;SDS011;28708;52.224;6.924;2022-09-09T05:26:43;13.87;;;7.53;;
43086;SDS011;28708;52.224;6.924;2022-09-09T05:29:09;12.40;;;7.47;;
43086;SDS011;28708;52.224;6.924;2022-09-09T05:31:35;11.47;;;7.20;;
43086;SDS011;28708;52.224;6.924;2022-09-09T05:34:07;13.07;;;6.90;;
43086;SDS011;28708;52.224;6.924;2022-09-09T05:36:33;12.17;;;7.23;;
43086;SDS011;28708;52.224;6.924;2022-09-09T05:38:59;11.50;;;6.17;;
43086;SDS011;28708;52.224;6.924;2022-09-09T05:41:27;12.80;;;6.73;;
43086;SDS011;28708;52.224;6.924;2022-09-09T05:43:55;11.23;;;6.17;;
43086;SDS011;28708;52.224;6.924;2022-09-09T05:46:22;11.57;;;5.83;;
43086;SDS011;28708;52.224;6.924;2022-09-09T05:48:51;10.63;;;6.20;;
43086;SDS011;28708;52.224;6.924;2022-09-09T05:51:21;12.70;;;5.22;;
43086;SDS011;28708;52.224;6.924;2022-09-09T05:53:49;15.23;;;5.87;;
43086;SDS011;28708;52.224;6.924;2022-09-09T05:56:18;13.63;;;5.50;;
43086;SDS011;28708;52.224;6.924;2022-09-09T05:58:47;9.57;;;6.03;;
43086;SDS011;28708;52.224;6.924;2022-09-09T06:01:18;10.83;;;5.67;;
43086;SDS011;28708;52.224;6.924;2022-09-09T06:03:49;9.70;;;5.80;;
43086;SDS011;28708;52.224;6.924;2022-09-09T06:06:17;9.40;;;5.47;;
43086;SDS011;28708;52.224;6.924;2022-09-09T06:08:49;9.30;;;5.13;;
43086;SDS011;28708;52.224;6.924;2022-09-09T06:11:18;11.70;;;5.60;;
43086;SDS011;28708;52.224;6.924;2022-09-09T06:13:46;11.60;;;5.75;;
43086;SDS011;28708;52.224;6.924;2022-09-09T06:16:14;11.10;;;5.47;;
43086;SDS011;28708;52.224;6.924;2022-09-09T06:18:42;9.82;;;5.28;;
43086;SDS011;28708;52.224;6.924;2022-09-09T06:21:19;11.63;;;5.27;;
43086;SDS011;28708;52.224;6.924;2022-09-09T06:23:47;12.63;;;6.00;;
43086;SDS011;28708;52.224;6.924;2022-09-09T06:26:15;9.10;;;4.80;;
43086;SDS011;28708;52.224;6.924;2022-09-09T06:31:11;11.83;;;5.10;;
43086;SDS011;28708;52.224;6.924;2022-09-09T06:33:40;12.50;;;4.47;;
43086;SDS011;28708;52.224;6.924;2022-09-09T06:36:12;8.93;;;4.23;;
43086;SDS011;28708;52.224;6.924;2022-09-09T06:38:40;13.47;;;4.77;;
43086;SDS011;28708;52.224;6.924;2022-09-09T06:41:09;9.33;;;4.67;;
43086;SDS011;28708;52.224;6.924;2022-09-09T06:43:38;14.90;;;4.13;;
43086;SDS011;28708;52.224;6.924;2022-09-09T06:48:40;11.60;;;4.20;;
43086;SDS011;28708;52.224;6.924;2022-09-09T06:51:10;10.90;;;3.97;;
43086;SDS011;28708;52.224;6.924;2022-09-09T06:53:38;9.47;;;3.60;;
43086;SDS011;28708;52.224;6.924;2022-09-09T06:58:50;16.47;;;4.30;;
43086;SDS011;28708;52.224;6.924;2022-09-09T07:01:25;13.43;;;3.63;;
43086;SDS011;28708;52.224;6.924;2022-09-09T07:03:55;11.73;;;4.13;;
43086;SDS011;28708;52.224;6.924;2022-09-09T07:06:27;13.68;;;3.95;;
43086;SDS011;28708;52.224;6.924;2022-09-09T07:08:58;8.67;;;3.20;;
43086;SDS011;28708;52.224;6.924;2022-09-09T07:11:30;13.80;;;3.55;;
43086;SDS011;28708;52.224;6.924;2022-09-09T07:13:57;13.13;;;3.37;;
43086;SDS011;28708;52.224;6.924;2022-09-09T07:16:25;15.67;;;3.40;;
43086;SDS011;28708;52.224;6.924;2022-09-09T07:18:54;8.60;;;3.27;;
43086;SDS011;28708;52.224;6.924;2022-09-09T07:21:23;7.53;;;2.97;;
43086;SDS011;28708;52.224;6.924;2022-09-09T07:23:52;12.77;;;3.20;;
43086;SDS011;28708;52.224;6.924;2022-09-09T07:26:20;10.90;;;3.00;;
43086;SDS011;28708;52.224;6.924;2022-09-09T07:28:48;7.35;;;2.58;;
43086;SDS011;28708;52.224;6.924;2022-09-09T07:31:15;9.87;;;3.00;;
43086;SDS011;28708;52.224;6.924;2022-09-09T07:33:44;12.27;;;3.07;;
43086;SDS011;28708;52.224;6.924;2022-09-09T07:36:15;12.00;;;2.80;;
43086;SDS011;28708;52.224;6.924;2022-09-09T07:38:44;12.40;;;2.70;;
43086;SDS011;28708;52.224;6.924;2022-09-09T07:41:13;11.50;;;3.23;;
43086;SDS011;28708;52.224;6.924;2022-09-09T07:43:44;9.80;;;2.80;;
43086;SDS011;28708;52.224;6.924;2022-09-09T07:46:12;9.80;;;2.47;;
43086;SDS011;28708;52.224;6.924;2022-09-09T07:48:44;9.00;;;2.43;;
43086;SDS011;28708;52.224;6.924;2022-09-09T07:51:12;12.40;;;2.60;;
43086;SDS011;28708;52.224;6.924;2022-09-09T07:53:43;11.13;;;3.03;;
43086;SDS011;28708;52.224;6.924;2022-09-09T07:56:10;8.97;;;2.90;;
43086;SDS011;28708;52.224;6.924;2022-09-09T08:01:06;8.33;;;2.43;;
43086;SDS011;28708;52.224;6.924;2022-09-09T08:04:02;8.13;;;2.73;;
43086;SDS011;28708;52.224;6.924;2022-09-09T08:06:31;7.47;;;2.63;;
43086;SDS011;28708;52.224;6.924;2022-09-09T08:08:59;8.77;;;2.93;;
43086;SDS011;28708;52.224;6.924;2022-09-09T08:11:26;6.83;;;2.00;;
43086;SDS011;28708;52.224;6.924;2022-09-09T08:13:55;10.27;;;2.87;;
43086;SDS011;28708;52.224;6.924;2022-09-09T08:16:22;7.70;;;2.40;;
43086;SDS011;28708;52.224;6.924;2022-09-09T08:18:50;8.70;;;2.40;;
43086;SDS011;28708;52.224;6.924;2022-09-09T08:21:22;8.43;;;2.77;;
43086;SDS011;28708;52.224;6.924;2022-09-09T08:23:52;16.50;;;2.80;;
43086;SDS011;28708;52.224;6.924;2022-09-09T08:28:50;10.07;;;2.67;;
43086;SDS011;28708;52.224;6.924;2022-09-09T08:31:24;9.90;;;2.80;;
43086;SDS011;28708;52.224;6.924;2022-09-09T08:33:50;15.43;;;2.67;;
43086;SDS011;28708;52.224;6.924;2022-09-09T08:36:17;13.70;;;3.33;;
43086;SDS011;28708;52.224;6.924;2022-09-09T08:38:49;10.88;;;2.28;;
43086;SDS011;28708;52.224;6.924;2022-09-09T08:44:07;6.83;;;1.93;;
43086;SDS011;28708;52.224;6.924;2022-09-09T08:57:46;7.33;;;2.23;;
43086;SDS011;28708;52.224;6.924;2022-09-09T09:00:14;12.37;;;2.93;;
43086;SDS011;28708;52.224;6.924;2022-09-09T09:03:00;9.13;;;2.20;;
43086;SDS011;28708;52.224;6.924;2022-09-09T09:08:20;13.30;;;2.43;;
43086;SDS011;28708;52.224;6.924;2022-09-09T09:10:53;12.60;;;2.17;;
43086;SDS011;28708;52.224;6.924;2022-09-09T09:13:34;15.43;;;2.40;;
43086;SDS011;28708;52.224;6.924;2022-09-09T09:18:53;10.73;;;2.33;;
43086;SDS011;28708;52.224;6.924;2022-09-09T09:21:29;11.07;;;2.08;;
43086;SDS011;28708;52.224;6.924;2022-09-09T09:24:06;9.20;;;2.13;;
43086;SDS011;28708;52.224;6.924;2022-09-09T09:26:41;9.50;;;1.90;;
43086;SDS011;28708;52.224;6.924;2022-09-09T09:29:16;10.43;;;2.00;;
43086;SDS011;28708;52.224;6.924;2022-09-09T09:31:48;8.07;;;2.33;;
43086;SDS011;28708;52.224;6.924;2022-09-09T09:34:20;10.97;;;1.80;;
43086;SDS011;28708;52.224;6.924;2022-09-09T09:36:53;8.77;;;1.83;;
43086;SDS011;28708;52.224;6.924;2022-09-09T09:39:28;9.13;;;1.90;;
43086;SDS011;28708;52.224;6.924;2022-09-09T09:42:07;8.95;;;2.33;;
43086;SDS011;28708;52.224;6.924;2022-09-09T09:44:43;6.00;;;1.40;;
43086;SDS011;28708;52.224;6.924;2022-09-09T09:47:16;7.83;;;1.60;;
43086;SDS011;28708;52.224;6.924;2022-09-09T09:50:16;10.63;;;2.13;;
43086;SDS011;28708;52.224;6.924;2022-09-09T09:52:53;10.77;;;2.27;;
43086;SDS011;28708;52.224;6.924;2022-09-09T09:55:24;14.95;;;1.98;;
43086;SDS011;28708;52.224;6.924;2022-09-09T09:57:52;8.40;;;2.13;;
43086;SDS011;28708;52.224;6.924;2022-09-09T10:00:23;9.57;;;1.97;;
43086;SDS011;28708;52.224;6.924;2022-09-09T10:03:00;8.13;;;2.13;;
43086;SDS011;28708;52.224;6.924;2022-09-09T10:05:30;8.75;;;1.60;;
43086;SDS011;28708;52.224;6.924;2022-09-09T10:11:02;10.53;;;1.90;;
43086;SDS011;28708;52.224;6.924;2022-09-09T10:19:32;8.23;;;1.63;;
43086;SDS011;28708;52.224;6.924;2022-09-09T10:22:15;9.87;;;2.00;;
43086;SDS011;28708;52.224;6.924;2022-09-09T10:24:58;5.10;;;1.33;;
43086;SDS011;28708;52.224;6.924;2022-09-09T10:33:44;8.97;;;1.40;;
43086;SDS011;28708;52.224;6.924;2022-09-09T10:36:25;9.63;;;2.13;;
43086;SDS011;28708;52.224;6.924;2022-09-09T10:38:52;9.37;;;1.33;;
43086;SDS011;28708;52.224;6.924;2022-09-09T10:53:12;10.00;;;2.90;;
43086;SDS011;28708;52.224;6.924;2022-09-09T10:55:29;8.32;;;2.55;;
43086;SDS011;28708;52.224;6.924;2022-09-09T10:58:05;7.05;;;2.58;;
43086;SDS011;28708;52.224;6.924;2022-09-09T11:00:42;6.63;;;1.52;;
43086;SDS011;28708;52.224;6.924;2022-09-09T11:03:16;7.82;;;1.75;;
43086;SDS011;28708;52.224;6.924;2022-09-09T11:05:46;8.75;;;2.17;;
43086;SDS011;28708;52.224;6.924;2022-09-09T11:08:21;7.65;;;2.25;;
43086;SDS011;28708;52.224;6.924;2022-09-09T11:19:03;5.10;;;1.20;;
43086;SDS011;28708;52.224;6.924;2022-09-09T11:21:37;9.18;;;2.13;;
43086;SDS011;28708;52.224;6.924;2022-09-09T11:24:16;4.93;;;1.20;;
43086;SDS011;28708;52.224;6.924;2022-09-09T11:26:50;9.40;;;1.60;;
43086;SDS011;28708;52.224;6.924;2022-09-09T11:34:56;5.97;;;1.33;;
43086;SDS011;28708;52.224;6.924;2022-09-09T11:37:35;7.25;;;1.17;;
43086;SDS011;28708;52.224;6.924;2022-09-09T11:40:44;5.55;;;0.80;;
43086;SDS011;28708;52.224;6.924;2022-09-09T11:43:18;4.85;;;1.33;;
43086;SDS011;28708;52.224;6.924;2022-09-09T11:45:54;5.95;;;1.35;;
43086;SDS011;28708;52.224;6.924;2022-09-09T11:50:59;9.98;;;1.80;;
43086;SDS011;28708;52.224;6.924;2022-09-09T11:56:01;4.60;;;1.10;;
43086;SDS011;28708;52.224;6.924;2022-09-09T11:58:39;4.70;;;1.45;;
43086;SDS011;28708;52.224;6.924;2022-09-09T12:06:58;4.23;;;1.10;;
43086;SDS011;28708;52.224;6.924;2022-09-09T12:09:44;4.05;;;1.25;;
43086;SDS011;28708;52.224;6.924;2022-09-09T12:17:23;6.67;;;1.27;;
43086;SDS011;28708;52.224;6.924;2022-09-09T12:20:08;5.43;;;1.37;;
43086;SDS011;28708;52.224;6.924;2022-09-09T12:23:00;5.77;;;1.30;;
43086;SDS011;28708;52.224;6.924;2022-09-09T12:28:27;5.90;;;1.30;;
43086;SDS011;28708;52.224;6.924;2022-09-09T12:34:38;6.10;;;1.50;;
43086;SDS011;28708;52.224;6.924;2022-09-09T12:40:03;5.87;;;1.27;;
43086;SDS011;28708;52.224;6.924;2022-09-09T12:42:31;6.35;;;1.20;;
43086;SDS011;28708;52.224;6.924;2022-09-09T12:45:01;6.18;;;1.65;;
43086;SDS011;28708;52.224;6.924;2022-09-09T12:47:34;7.27;;;1.30;;
43086;SDS011;28708;52.224;6.924;2022-09-09T12:52:42;8.57;;;1.60;;
43086;SDS011;28708;52.224;6.924;2022-09-09T12:55:15;8.00;;;1.40;;
43086;SDS011;28708;52.224;6.924;2022-09-09T12:57:46;4.57;;;1.33;;
43086;SDS011;28708;52.224;6.924;2022-09-09T13:00:19;5.40;;;1.53;;
43086;SDS011;28708;52.224;6.924;2022-09-09T13:02:57;9.20;;;1.60;;
43086;SDS011;28708;52.224;6.924;2022-09-09T13:05:36;7.13;;;1.30;;
43086;SDS011;28708;52.224;6.924;2022-09-09T13:08:08;5.13;;;1.33;;
43086;SDS011;28708;52.224;6.924;2022-09-09T13:10:39;9.10;;;1.33;;
43086;SDS011;28708;52.224;6.924;2022-09-09T13:13:55;8.37;;;2.30;;
43086;SDS011;28708;52.224;6.924;2022-09-09T13:16:31;11.18;;;1.55;;
43086;SDS011;28708;52.224;6.924;2022-09-09T13:19:00;9.67;;;1.70;;
43086;SDS011;28708;52.224;6.924;2022-09-09T13:21:34;7.80;;;1.30;;
43086;SDS011;28708;52.224;6.924;2022-09-09T13:24:01;5.37;;;1.20;;
43086;SDS011;28708;52.224;6.924;2022-09-09T13:26:29;6.07;;;1.20;;
43086;SDS011;28708;52.224;6.924;2022-09-09T13:29:06;5.60;;;1.13;;
43086;SDS011;28708;52.224;6.924;2022-09-09T13:31:43;4.17;;;0.90;;
43086;SDS011;28708;52.224;6.924;2022-09-09T13:34:28;7.27;;;1.60;;
43086;SDS011;28708;52.224;6.924;2022-09-09T13:37:05;3.80;;;0.90;;
43086;SDS011;28708;52.224;6.924;2022-09-09T13:39:50;2.63;;;0.60;;
43086;SDS011;28708;52.224;6.924;2022-09-09T13:42:24;2.53;;;0.70;;
43086;SDS011;28708;52.224;6.924;2022-09-09T13:44:56;3.70;;;0.90;;
43086;SDS011;28708;52.224;6.924;2022-09-09T13:47:35;3.20;;;0.77;;
43086;SDS011;28708;52.224;6.924;2022-09-09T13:52:55;3.30;;;0.70;;
43086;SDS011;28708;52.224;6.924;2022-09-09T13:55:24;2.83;;;0.80;;
43086;SDS011;28708;52.224;6.924;2022-09-09T13:57:55;5.33;;;0.97;;
43086;SDS011;28708;52.224;6.924;2022-09-09T14:00:24;3.63;;;0.83;;
43086;SDS011;28708;52.224;6.924;2022-09-09T14:02:50;3.80;;;1.00;;
43086;SDS011;28708;52.224;6.924;2022-09-09T14:05:17;6.37;;;1.50;;
43086;SDS011;28708;52.224;6.924;2022-09-09T14:07:43;2.73;;;1.00;;
43086;SDS011;28708;52.224;6.924;2022-09-09T14:10:10;3.40;;;0.90;;
43086;SDS011;28708;52.224;6.924;2022-09-09T14:12:37;5.83;;;1.27;;
43086;SDS011;28708;52.224;6.924;2022-09-09T14:15:04;4.80;;;1.30;;
43086;SDS011;28708;52.224;6.924;2022-09-09T14:17:30;4.67;;;1.30;;
43086;SDS011;28708;52.224;6.924;2022-09-09T14:19:58;4.60;;;1.17;;
43086;SDS011;28708;52.224;6.924;2022-09-09T14:22:25;4.33;;;1.30;;
43086;SDS011;28708;52.224;6.924;2022-09-09T14:24:51;4.33;;;1.30;;
43086;SDS011;28708;52.224;6.924;2022-09-09T14:27:17;3.23;;;0.90;;
43086;SDS011;28708;52.224;6.924;2022-09-09T14:29:44;6.20;;;1.60;;
43086;SDS011;28708;52.224;6.924;2022-09-09T14:32:10;4.97;;;1.30;;
43086;SDS011;28708;52.224;6.924;2022-09-09T14:34:37;4.60;;;1.30;;
43086;SDS011;28708;52.224;6.924;2022-09-09T14:37:03;5.87;;;1.90;;
43086;SDS011;28708;52.224;6.924;2022-09-09T14:39:29;4.83;;;1.37;;
43086;SDS011;28708;52.224;6.924;2022-09-09T14:41:55;5.13;;;1.60;;
43086;SDS011;28708;52.224;6.924;2022-09-09T14:44:21;6.80;;;1.77;;
43086;SDS011;28708;52.224;6.924;2022-09-09T14:46:47;7.13;;;1.40;;
43086;SDS011;28708;52.224;6.924;2022-09-09T14:49:15;4.83;;;1.50;;
43086;SDS011;28708;52.224;6.924;2022-09-09T14:51:41;4.83;;;1.60;;
43086;SDS011;28708;52.224;6.924;2022-09-09T14:54:07;4.97;;;1.37;;
43086;SDS011;28708;52.224;6.924;2022-09-09T14:56:33;4.50;;;1.33;;
43086;SDS011;28708;52.224;6.924;2022-09-09T14:58:59;4.63;;;1.33;;
43086;SDS011;28708;52.224;6.924;2022-09-09T15:01:27;7.83;;;2.00;;
43086;SDS011;28708;52.224;6.924;2022-09-09T15:04:04;6.03;;;1.90;;
43086;SDS011;28708;52.224;6.924;2022-09-09T15:06:31;5.40;;;1.83;;
43086;SDS011;28708;52.224;6.924;2022-09-09T15:08:59;9.43;;;1.80;;
43086;SDS011;28708;52.224;6.924;2022-09-09T15:11:26;4.63;;;1.73;;
43086;SDS011;28708;52.224;6.924;2022-09-09T15:13:55;6.40;;;2.00;;
43086;SDS011;28708;52.224;6.924;2022-09-09T15:16:23;6.77;;;1.70;;
43086;SDS011;28708;52.224;6.924;2022-09-09T15:18:51;4.78;;;1.50;;
43086;SDS011;28708;52.224;6.924;2022-09-09T15:21:20;5.63;;;1.80;;
43086;SDS011;28708;52.224;6.924;2022-09-09T15:23:47;4.90;;;1.80;;
43086;SDS011;28708;52.224;6.924;2022-09-09T15:26:14;9.47;;;2.37;;
43086;SDS011;28708;52.224;6.924;2022-09-09T15:28:42;4.80;;;1.77;;
43086;SDS011;28708;52.224;6.924;2022-09-09T15:31:10;5.57;;;2.20;;
43086;SDS011;28708;52.224;6.924;2022-09-09T15:33:55;7.07;;;2.37;;
43086;SDS011;28708;52.224;6.924;2022-09-09T15:36:26;4.27;;;2.00;;
43086;SDS011;28708;52.224;6.924;2022-09-09T15:38:54;7.67;;;1.80;;
43086;SDS011;28708;52.224;6.924;2022-09-09T15:41:22;7.57;;;2.20;;
43086;SDS011;28708;52.224;6.924;2022-09-09T15:43:49;7.10;;;2.10;;
43086;SDS011;28708;52.224;6.924;2022-09-09T15:48:43;5.37;;;1.97;;
43086;SDS011;28708;52.224;6.924;2022-09-09T15:51:10;6.97;;;2.07;;
43086;SDS011;28708;52.224;6.924;2022-09-09T15:53:36;7.30;;;2.20;;
43086;SDS011;28708;52.224;6.924;2022-09-09T15:56:04;7.90;;;2.17;;
43086;SDS011;28708;52.224;6.924;2022-09-09T15:58:34;7.60;;;2.50;;
43086;SDS011;28708;52.224;6.924;2022-09-09T16:01:07;4.72;;;1.90;;
43086;SDS011;28708;52.224;6.924;2022-09-09T16:03:34;6.80;;;1.80;;
43086;SDS011;28708;52.224;6.924;2022-09-09T16:06:01;7.93;;;2.13;;
43086;SDS011;28708;52.224;6.924;2022-09-09T16:08:46;7.47;;;2.27;;
43086;SDS011;28708;52.224;6.924;2022-09-09T16:11:23;7.30;;;1.93;;
43086;SDS011;28708;52.224;6.924;2022-09-09T16:13:54;7.72;;;2.40;;
43086;SDS011;28708;52.224;6.924;2022-09-09T16:16:22;9.13;;;2.67;;
43086;SDS011;28708;52.224;6.924;2022-09-09T16:18:53;8.17;;;2.20;;
43086;SDS011;28708;52.224;6.924;2022-09-09T16:23:56;9.40;;;2.50;;
43086;SDS011;28708;52.224;6.924;2022-09-09T16:26:29;8.00;;;2.10;;
43086;SDS011;28708;52.224;6.924;2022-09-09T16:28:56;9.63;;;2.47;;
43086;SDS011;28708;52.224;6.924;2022-09-09T16:31:26;6.15;;;2.40;;
43086;SDS011;28708;52.224;6.924;2022-09-09T16:33:53;9.60;;;3.00;;
43086;SDS011;28708;52.224;6.924;2022-09-09T16:36:20;10.80;;;3.33;;
43086;SDS011;28708;52.224;6.924;2022-09-09T16:38:51;10.10;;;3.17;;
43086;SDS011;28708;52.224;6.924;2022-09-09T16:41:22;7.23;;;2.70;;
43086;SDS011;28708;52.224;6.924;2022-09-09T16:43:52;9.53;;;3.27;;
43086;SDS011;28708;52.224;6.924;2022-09-09T16:46:20;9.53;;;2.60;;
43086;SDS011;28708;52.224;6.924;2022-09-09T16:48:47;8.33;;;2.93;;
43086;SDS011;28708;52.224;6.924;2022-09-09T16:51:15;6.00;;;3.07;;
43086;SDS011;28708;52.224;6.924;2022-09-09T16:53:42;8.37;;;3.20;;
43086;SDS011;28708;52.224;6.924;2022-09-09T16:56:10;8.10;;;3.90;;
43086;SDS011;28708;52.224;6.924;2022-09-09T16:58:40;10.20;;;3.87;;
43086;SDS011;28708;52.224;6.924;2022-09-09T17:01:08;11.03;;;3.97;;
43086;SDS011;28708;52.224;6.924;2022-09-09T17:03:36;10.67;;;3.77;;
43086;SDS011;28708;52.224;6.924;2022-09-09T17:06:02;6.30;;;2.83;;
43086;SDS011;28708;52.224;6.924;2022-09-09T17:08:33;10.80;;;3.80;;
43086;SDS011;28708;52.224;6.924;2022-09-09T17:10:59;14.13;;;5.00;;
43086;SDS011;28708;52.224;6.924;2022-09-09T17:13:25;11.03;;;4.53;;
43086;SDS011;28708;52.224;6.924;2022-09-09T17:15:51;10.20;;;3.97;;
43086;SDS011;28708;52.224;6.924;2022-09-09T17:18:17;7.17;;;3.90;;
43086;SDS011;28708;52.224;6.924;2022-09-09T17:20:43;9.53;;;4.37;;
43086;SDS011;28708;52.224;6.924;2022-09-09T17:23:10;11.93;;;4.03;;
43086;SDS011;28708;52.224;6.924;2022-09-09T17:25:37;9.83;;;3.23;;
43086;SDS011;28708;52.224;6.924;2022-09-09T17:28:03;7.90;;;3.40;;
43086;SDS011;28708;52.224;6.924;2022-09-09T17:30:32;7.13;;;3.10;;
43086;SDS011;28708;52.224;6.924;2022-09-09T17:32:59;8.48;;;2.85;;
43086;SDS011;28708;52.224;6.924;2022-09-09T17:35:26;6.90;;;2.70;;
43086;SDS011;28708;52.224;6.924;2022-09-09T17:37:52;5.80;;;2.20;;
43086;SDS011;28708;52.224;6.924;2022-09-09T17:40:20;6.77;;;2.50;;
43086;SDS011;28708;52.224;6.924;2022-09-09T17:42:52;6.30;;;2.50;;
43086;SDS011;28708;52.224;6.924;2022-09-09T17:45:19;7.73;;;2.47;;
43086;SDS011;28708;52.224;6.924;2022-09-09T17:47:45;7.03;;;2.70;;
43086;SDS011;28708;52.224;6.924;2022-09-09T17:50:11;6.13;;;2.47;;
43086;SDS011;28708;52.224;6.924;2022-09-09T17:52:38;7.13;;;2.73;;
43086;SDS011;28708;52.224;6.924;2022-09-09T17:55:05;9.40;;;3.90;;
43086;SDS011;28708;52.224;6.924;2022-09-09T17:57:32;7.17;;;3.33;;